Terminal Aerodrome Forecast
Issued by NWS Blacksburg, VA

Home | Current Version | Previous Version | Text Only | Print | Product List | Glossary On
Versions: 1 2 3 4 5 6 7 8 9 10 11
000
FTUS41 KRNK 262320
TAFLYH
TAF
KLYH 262320Z 2700/2724 16006KT P6SM -SHRA SCT020 OVC045
     FM270300 16006KT P6SM SCT020 OVC070
     FM270600 19006KT P6SM SCT020 OVC040
     FM272000 21008KT P6SM SCT070=

USA.gov is the U.S. government's official web portal to all federal, state and local government web resources and services.